createdAt,value
2018-07-30T00:00:23.978Z,92.66
2018-07-30T00:01:24.000Z,92.85
2018-07-30T00:03:24.305Z,92.76
2018-07-30T00:04:24.076Z,92.94
2018-07-30T00:05:24.214Z,93.04
2018-07-30T00:06:24.126Z,93.81
2018-07-30T00:07:24.151Z,93.91
2018-07-30T00:08:24.178Z,93.72
2018-07-30T00:09:38.865Z,93.72
2018-07-30T00:10:24.242Z,94.01
2018-07-30T00:11:24.251Z,94.01
2018-07-30T00:12:24.022Z,94.1
2018-07-30T00:13:24.303Z,93.57
2018-07-30T00:14:24.327Z,93.81
2018-07-30T00:15:24.109Z,93.91
2018-07-30T00:16:24.382Z,94.1
2018-07-30T00:17:24.404Z,94.01
2018-07-30T00:18:24.428Z,93.67
2018-07-30T00:19:24.454Z,94.2
2018-07-30T00:20:24.480Z,94.68
2018-07-30T00:21:24.254Z,94.54
2018-07-30T00:22:24.282Z,94.92
2018-07-30T00:23:24.591Z,95.12
2018-07-30T00:24:24.586Z,95.6
2018-07-30T00:25:39.269Z,95.69
2018-07-30T00:26:24.630Z,95.69
2018-07-30T00:27:24.655Z,95.5
2018-07-30T00:28:24.685Z,95.12
2018-07-30T00:29:24.704Z,95.21
2018-07-30T00:30:24.732Z,95.12
2018-07-30T00:31:24.792Z,95.02
2018-07-30T00:32:24.782Z,95.02
2018-07-30T00:33:24.808Z,94.92
2018-07-30T00:34:24.831Z,95.6
2018-07-30T00:35:24.857Z,95.31
2018-07-30T00:36:24.881Z,95.89
2018-07-30T00:37:24.906Z,95.98
2018-07-30T00:38:24.933Z,95.89
2018-07-30T00:39:24.700Z,95.79
2018-07-30T00:40:24.980Z,96.37
2018-07-30T00:41:39.668Z,96.17
2018-07-30T00:42:25.035Z,96.37
2018-07-30T00:43:25.056Z,95.98
2018-07-30T00:44:25.084Z,96.37
2018-07-30T00:45:25.109Z,96.27
2018-07-30T00:46:25.132Z,96.27
2018-07-30T00:47:25.158Z,95.98
2018-07-30T00:50:24.987Z,95.79
2018-07-30T00:52:25.030Z,95.12
2018-07-30T00:53:25.407Z,94.97
2018-07-30T00:54:25.330Z,95.02
2018-07-30T00:55:25.363Z,94.92
2018-07-30T00:56:40.047Z,95.55
2018-07-30T00:57:25.412Z,95.84
2018-07-30T00:58:25.433Z,95.16
2018-07-30T00:59:25.201Z,95.12
2018-07-30T01:00:25.227Z,94.87
2018-07-30T01:01:25.511Z,95.64
2018-07-30T01:02:25.288Z,95.55
2018-07-30T01:03:25.559Z,95.79
2018-07-30T01:04:25.584Z,96.08
2018-07-30T01:05:25.606Z,95.79
2018-07-30T01:07:25.670Z,95.89
2018-07-30T01:08:25.685Z,96.37
2018-07-30T01:09:25.711Z,96.66
2018-07-30T01:10:25.737Z,96.27
2018-07-30T01:11:25.760Z,95.79
2018-07-30T01:12:25.784Z,95.69
2018-07-30T01:13:25.551Z,95.6
2018-07-30T01:14:25.671Z,95.89
2018-07-30T01:15:25.857Z,95.84
2018-07-30T01:16:25.882Z,95.45
2018-07-30T01:17:25.908Z,95.45
2018-07-30T01:18:25.675Z,95.36
2018-07-30T01:19:25.959Z,95.45
2018-07-30T01:20:25.984Z,95.89
2018-07-30T01:22:26.036Z,96.37
2018-07-30T01:23:26.058Z,96.17
2018-07-30T01:24:25.826Z,96.46
2018-07-30T01:25:26.112Z,96.17
2018-07-30T01:26:26.133Z,96.17
2018-07-30T01:27:26.157Z,96.27
2018-07-30T01:28:40.847Z,96.27
2018-07-30T01:29:26.215Z,96.37
2018-07-30T01:30:25.976Z,96.27
2018-07-30T01:31:26.262Z,95.98
2018-07-30T01:32:26.286Z,96.08
2018-07-30T01:33:26.309Z,95.89
2018-07-30T01:34:26.335Z,96.08
2018-07-30T01:35:26.358Z,95.89
2018-07-30T01:36:26.125Z,95.6
2018-07-30T01:37:26.408Z,96.03
2018-07-30T01:38:26.436Z,96.03
2018-07-30T01:39:26.462Z,95.89
2018-07-30T01:40:26.487Z,95.69
2018-07-30T01:41:26.516Z,95.89
2018-07-30T01:42:26.533Z,95.89
2018-07-30T01:43:26.559Z,95.98
2018-07-30T01:44:41.245Z,95.6
2018-07-30T01:45:26.609Z,96.08
2018-07-30T01:46:26.634Z,96.08
2018-07-30T01:47:26.657Z,95.89
2018-07-30T01:48:26.684Z,95.79
2018-07-30T01:49:26.450Z,95.98
2018-07-30T01:50:26.730Z,95.98
2018-07-30T01:51:26.764Z,96.56
2018-07-30T01:52:26.785Z,96.27
2018-07-30T01:53:26.809Z,95.79
2018-07-30T01:54:26.837Z,95.69
2018-07-30T01:55:27.014Z,95.94
2018-07-30T01:56:26.885Z,95.45
2018-07-30T01:57:26.913Z,95.36
2018-07-30T01:58:26.931Z,95.4
2018-07-30T01:59:26.702Z,95.4
2018-07-30T02:00:41.645Z,96.03
2018-07-30T02:01:27.014Z,95.89
2018-07-30T02:02:27.038Z,95.84
2018-07-30T02:03:27.056Z,96.12
2018-07-30T02:04:27.083Z,95.94
2018-07-30T02:05:26.850Z,96.03
2018-07-30T02:06:27.132Z,95.89
2018-07-30T02:07:27.157Z,96.03
2018-07-30T02:08:27.181Z,95.64
2018-07-30T02:09:26.949Z,95.5
2018-07-30T02:10:27.230Z,95.26
2018-07-30T02:11:27.297Z,95.55
2018-07-30T02:12:27.023Z,95.36
2018-07-30T02:13:27.049Z,95.64
2018-07-30T02:14:27.339Z,95.94
2018-07-30T02:15:27.362Z,95.79
2018-07-30T02:16:42.043Z,95.36
2018-07-30T02:17:27.407Z,95.45
2018-07-30T02:18:27.438Z,95.45
2018-07-30T02:19:27.198Z,95.74
2018-07-30T02:20:27.485Z,95.4
2018-07-30T02:21:27.257Z,95.31
2018-07-30T02:22:27.531Z,96.12
2018-07-30T02:23:27.556Z,95.94
2018-07-30T02:25:27.346Z,95.55
2018-07-30T02:27:27.655Z,95.55
2018-07-30T02:28:27.682Z,95.36
2018-07-30T02:29:27.448Z,95.07
2018-07-30T02:30:27.831Z,95.07
2018-07-30T02:31:42.419Z,95.07
2018-07-30T02:32:27.784Z,95.07
2018-07-30T02:33:27.550Z,95.07
2018-07-30T02:34:27.833Z,95.16
2018-07-30T02:35:27.855Z,95.07
2018-07-30T02:36:27.888Z,94.78
2018-07-30T02:37:27.925Z,94.68
2018-07-30T02:38:27.929Z,94.78
2018-07-30T02:39:27.957Z,94.59
2018-07-30T02:40:27.981Z,94.87
2018-07-30T02:41:28.014Z,94.78
2018-07-30T02:42:28.032Z,94.39
2018-07-30T02:43:28.057Z,94.39
2018-07-30T02:44:27.828Z,94.59
2018-07-30T02:45:28.104Z,94.1
2018-07-30T02:46:28.129Z,94.39
2018-07-30T02:47:28.156Z,93.81
2018-07-30T02:48:28.191Z,94.49
2018-07-30T02:49:28.208Z,93.81
2018-07-30T02:50:28.229Z,93.04
2018-07-30T02:51:28.260Z,93.57
2018-07-30T02:52:28.278Z,93.72
2018-07-30T02:53:28.305Z,93.91
2018-07-30T02:54:28.074Z,94.49
2018-07-30T02:55:28.358Z,93.62
2018-07-30T02:56:28.381Z,94.01
2018-07-30T02:57:28.495Z,94.49
2018-07-30T02:58:28.445Z,94.2
2018-07-30T02:59:28.460Z,94.39
2018-07-30T03:00:28.485Z,93.81
2018-07-30T03:01:28.247Z,94.01
2018-07-30T03:02:28.535Z,93.62
2018-07-30T03:03:43.214Z,93.43
2018-07-30T03:04:28.582Z,93.48
2018-07-30T03:05:28.606Z,93.24
2018-07-30T03:06:28.627Z,93.48
2018-07-30T03:07:28.653Z,93.43
2018-07-30T03:08:28.677Z,93.33
2018-07-30T03:09:28.516Z,93.33
2018-07-30T03:10:28.727Z,93.38
2018-07-30T03:11:28.758Z,93.86
2018-07-30T03:12:28.783Z,93.86
2018-07-30T03:13:28.803Z,93.48
2018-07-30T03:14:28.569Z,93.48
2018-07-30T03:15:28.596Z,92.99
2018-07-30T03:16:28.878Z,92.71
2018-07-30T03:17:28.901Z,92.61
2018-07-30T03:18:28.927Z,92.13
2018-07-30T03:19:43.613Z,92.22
2018-07-30T03:20:28.978Z,92.32
2018-07-30T03:21:29.002Z,92.22
2018-07-30T03:22:28.769Z,92.32
2018-07-30T03:23:28.791Z,92.41
2018-07-30T03:24:28.817Z,92.03
2018-07-30T03:25:29.099Z,91.93
2018-07-30T03:26:29.124Z,92.32
2018-07-30T03:27:29.149Z,91.93
2018-07-30T03:28:29.175Z,92.13
2018-07-30T03:31:28.995Z,91.93
2018-07-30T03:32:29.017Z,91.74
2018-07-30T03:34:29.325Z,91.64
2018-07-30T03:35:44.016Z,92.03
2018-07-30T03:36:29.376Z,92.22
2018-07-30T03:37:29.406Z,91.83
2018-07-30T03:38:29.424Z,91.74
2018-07-30T03:39:29.452Z,91.16
2018-07-30T03:40:29.519Z,91.55
2018-07-30T03:41:29.499Z,91.36
2018-07-30T03:42:29.527Z,91.55
2018-07-30T03:43:29.550Z,90.68
2018-07-30T03:44:29.576Z,91.16
2018-07-30T03:45:29.603Z,91.06
2018-07-30T03:46:29.628Z,90.78
2018-07-30T03:47:29.655Z,90.63
2018-07-30T03:48:29.672Z,91.11
2018-07-30T03:49:29.705Z,90.34
2018-07-30T03:50:29.722Z,91.11
2018-07-30T03:51:44.411Z,90.72
2018-07-30T03:52:29.775Z,90.53
2018-07-30T03:53:29.546Z,90.63
2018-07-30T03:54:29.828Z,90.44
2018-07-30T03:55:29.850Z,90.82
2018-07-30T03:56:29.877Z,89.67
2018-07-30T03:57:29.900Z,89.67
2018-07-30T03:58:29.926Z,89.76
2018-07-30T03:59:29.949Z,90.44
2018-07-30T04:00:30.126Z,90.44
2018-07-30T04:01:29.999Z,89.95
2018-07-30T04:02:30.025Z,89.47
2018-07-30T04:03:30.049Z,89.86
2018-07-30T04:04:30.075Z,89.86
2018-07-30T04:05:30.097Z,89.95
2018-07-30T04:06:44.787Z,89.76
2018-07-30T04:07:30.150Z,90.15
2018-07-30T04:08:30.174Z,90.15
2018-07-30T04:09:30.201Z,89.67
2018-07-30T04:10:30.225Z,89.47
2018-07-30T04:11:30.250Z,89.76
2018-07-30T04:12:30.276Z,89.95
2018-07-30T04:13:30.301Z,90.63
2018-07-30T04:15:30.356Z,90.82
2018-07-30T04:16:30.377Z,90.72
2018-07-30T04:18:30.424Z,90.05
2018-07-30T04:19:30.193Z,89.86
2018-07-30T04:20:30.477Z,89.67
2018-07-30T04:21:30.500Z,90
2018-07-30T04:22:30.526Z,89.67
2018-07-30T04:23:30.549Z,89.67
2018-07-30T04:24:30.577Z,89.67
2018-07-30T04:25:30.344Z,89.86
2018-07-30T04:26:30.625Z,90.15
2018-07-30T04:27:30.659Z,89.67
2018-07-30T04:28:30.674Z,89.67
2018-07-30T04:29:30.701Z,89.81
2018-07-30T04:30:30.724Z,89.67
2018-07-30T04:31:30.763Z,89.67
2018-07-30T04:33:30.800Z,90
2018-07-30T04:34:30.568Z,89.81
2018-07-30T04:35:30.595Z,89.95
2018-07-30T04:36:30.876Z,89.67
2018-07-30T04:37:30.900Z,89.37
2018-07-30T04:38:45.588Z,88.93
2018-07-30T04:39:30.949Z,88.93
2018-07-30T04:40:30.977Z,89.13
2018-07-30T04:42:31.026Z,89.13
2018-07-30T04:43:30.795Z,89.13
2018-07-30T04:44:31.082Z,88.84
2018-07-30T04:45:31.103Z,88.75
2018-07-30T04:46:31.125Z,88.55
2018-07-30T04:47:31.156Z,88.26
2018-07-30T04:48:31.229Z,88.5
2018-07-30T04:49:31.202Z,88.36
2018-07-30T04:50:30.971Z,88.36
2018-07-30T04:51:31.254Z,88.26
2018-07-30T04:52:31.279Z,88.89
2018-07-30T04:53:31.302Z,87.92
2018-07-30T04:54:45.990Z,87.63
2018-07-30T04:55:31.353Z,87.73
2018-07-30T04:56:31.379Z,88.02
2018-07-30T04:57:31.402Z,88.21
2018-07-30T04:58:31.428Z,87.73
2018-07-30T04:59:31.452Z,87.73
2018-07-30T05:00:31.478Z,87.15
2018-07-30T05:01:31.503Z,87.09
2018-07-30T05:02:31.271Z,86.8
2018-07-30T05:04:31.589Z,86.52
2018-07-30T05:05:31.612Z,87.09
2018-07-30T05:06:31.630Z,86.8
2018-07-30T05:07:31.657Z,86.42
2018-07-30T05:08:31.685Z,86.36
2018-07-30T05:09:31.715Z,85.88
2018-07-30T05:10:46.394Z,85.78
2018-07-30T05:11:31.770Z,84.91
2018-07-30T05:12:31.526Z,84.47
2018-07-30T05:13:31.554Z,84.86
2018-07-30T05:14:31.835Z,84.91
2018-07-30T05:15:31.861Z,84.28
2018-07-30T05:16:31.883Z,84.86
2018-07-30T05:17:31.654Z,83.99
2018-07-30T05:18:31.937Z,83.89
2018-07-30T05:19:32.284Z,83.64
2018-07-30T05:20:31.989Z,82.97
2018-07-30T05:21:32.016Z,82.78
2018-07-30T05:22:31.782Z,82.58
2018-07-30T05:23:32.067Z,82.43
2018-07-30T05:24:32.091Z,81.85
2018-07-30T05:25:32.202Z,81.17
2018-07-30T05:26:46.806Z,81.27
2018-07-30T05:27:32.170Z,81.65
2018-07-30T05:28:32.194Z,81.07
2018-07-30T05:29:32.221Z,81.02
2018-07-30T05:30:32.247Z,80.82
2018-07-30T05:31:32.307Z,79.9
2018-07-30T05:32:32.305Z,79.6
2018-07-30T05:33:32.331Z,79.32
2018-07-30T05:34:32.351Z,79.6
2018-07-30T05:35:32.379Z,79.7
2018-07-30T05:36:32.411Z,78.64
2018-07-30T05:37:32.433Z,78.44
2018-07-30T05:38:32.458Z,78.64
2018-07-30T05:39:32.484Z,78.64
2018-07-30T05:40:32.610Z,78.34
2018-07-30T05:41:47.202Z,78.64
2018-07-30T05:42:32.307Z,79.41
2018-07-30T05:43:32.592Z,79.85
2018-07-30T05:44:32.618Z,79.99
2018-07-30T05:45:32.655Z,80.24
2018-07-30T05:46:32.672Z,79.66
2018-07-30T05:47:32.695Z,79.76
2018-07-30T05:48:32.722Z,80.24
2018-07-30T05:49:32.850Z,80.92
2018-07-30T05:51:32.803Z,80.24
2018-07-30T05:53:32.859Z,80.63
2018-07-30T05:54:32.883Z,81.02
2018-07-30T05:55:32.907Z,81.12
2018-07-30T05:56:32.938Z,80.92
2018-07-30T05:57:32.961Z,81.21
2018-07-30T05:58:32.984Z,80.77
2018-07-30T05:59:33.197Z,80.47
2018-07-30T06:00:33.039Z,81.12
2018-07-30T06:01:33.063Z,80.96
2018-07-30T06:02:33.092Z,81.12
2018-07-30T06:03:33.119Z,81.7
2018-07-30T06:04:33.143Z,81.3
2018-07-30T06:05:33.343Z,81.3
2018-07-30T06:06:32.940Z,81.12
2018-07-30T06:07:33.225Z,81.12
2018-07-30T06:08:33.256Z,81.89
2018-07-30T06:09:33.331Z,81.5
2018-07-30T06:10:33.303Z,81.98
2018-07-30T06:11:33.330Z,81.6
2018-07-30T06:12:33.354Z,81.7
2018-07-30T06:13:48.044Z,81.6
2018-07-30T06:14:33.410Z,80.96
2018-07-30T06:15:33.435Z,81.4
2018-07-30T06:16:33.460Z,81.7
2018-07-30T06:17:33.487Z,81.98
2018-07-30T06:18:33.262Z,81.64
2018-07-30T06:19:33.286Z,81.54
2018-07-30T06:20:33.568Z,81.93
2018-07-30T06:21:33.597Z,81.79
2018-07-30T06:22:33.619Z,82.18
2018-07-30T06:25:33.704Z,82.32
2018-07-30T06:26:33.835Z,81.73
2018-07-30T06:27:33.492Z,82.03
2018-07-30T06:28:33.821Z,81.45
2018-07-30T06:29:48.465Z,81.35
2018-07-30T06:30:33.835Z,81.15
2018-07-30T06:31:33.862Z,80.47
2018-07-30T06:32:33.883Z,80.87
2018-07-30T06:33:33.652Z,81.15
2018-07-30T06:34:33.933Z,80.96
2018-07-30T06:35:33.962Z,80.19
2018-07-30T06:37:34.013Z,81.29
2018-07-30T06:38:34.274Z,80.57
2018-07-30T06:39:34.072Z,80.8
2018-07-30T06:40:34.091Z,80.57
2018-07-30T06:41:34.123Z,81.1
2018-07-30T06:42:34.145Z,80.42
2018-07-30T06:43:34.176Z,80.22
2018-07-30T06:44:33.941Z,80.9
2018-07-30T06:45:48.887Z,79.84
2018-07-30T06:46:34.251Z,79.88
2018-07-30T06:47:34.278Z,79.16
2018-07-30T06:48:34.308Z,79.49
2018-07-30T06:49:34.073Z,79.2
2018-07-30T06:50:34.355Z,79.39
2018-07-30T06:51:34.385Z,79.39
2018-07-30T06:52:34.412Z,79.49
2018-07-30T06:53:34.440Z,80.07
2018-07-30T06:54:34.467Z,79.78
2018-07-30T06:55:34.489Z,79.88
2018-07-30T06:57:34.286Z,79.88
2018-07-30T06:58:34.579Z,79.68
2018-07-30T06:59:34.602Z,79.2
2018-07-30T07:00:34.627Z,79.24
2018-07-30T07:01:49.313Z,79.24
2018-07-30T07:02:34.683Z,79.24
2018-07-30T07:03:34.447Z,79.04
2018-07-30T07:04:34.740Z,78.66
2018-07-30T07:05:34.756Z,78.33
2018-07-30T07:06:34.788Z,78.91
2018-07-30T07:08:34.843Z,79.14
2018-07-30T07:09:34.869Z,78.66
2018-07-30T07:10:34.900Z,78.56
2018-07-30T07:11:34.920Z,79.33
2018-07-30T07:12:34.946Z,79.33
2018-07-30T07:13:34.974Z,78.75
2018-07-30T07:14:35.026Z,78.17
2018-07-30T07:15:35.027Z,78.27
2018-07-30T07:16:49.795Z,77.98
2018-07-30T07:17:35.082Z,78.46
2018-07-30T07:18:34.851Z,77.88
2018-07-30T07:19:35.138Z,77.39
2018-07-30T07:20:35.211Z,77.49
2018-07-30T07:21:35.286Z,77.29
2018-07-30T07:22:35.216Z,77.92
2018-07-30T07:24:35.272Z,77.39
2018-07-30T07:26:35.328Z,78.02
2018-07-30T07:27:35.352Z,77.43
2018-07-30T07:28:35.379Z,77.72
2018-07-30T07:29:35.405Z,76.85
2018-07-30T07:30:35.433Z,76.46
2018-07-30T07:31:35.460Z,76.5
2018-07-30T07:32:35.229Z,76.46
2018-07-30T07:33:35.514Z,76.31
2018-07-30T07:34:35.555Z,75.82
2018-07-30T07:35:35.571Z,75.67
2018-07-30T07:36:35.595Z,75.47
2018-07-30T07:37:35.623Z,74.79
2018-07-30T07:38:35.651Z,73.37
2018-07-30T07:39:35.678Z,73.85
2018-07-30T07:40:35.448Z,72.37
2018-07-30T07:41:35.738Z,69.87
2018-07-30T07:42:35.773Z,67.12
2018-07-30T07:43:35.790Z,66.76
2018-07-30T07:44:35.562Z,66.96
2018-07-30T07:45:35.848Z,66.66
2018-07-30T07:46:35.876Z,65.72
2018-07-30T07:47:35.650Z,65.82
2018-07-30T07:48:50.599Z,64.39
2018-07-30T07:49:36.022Z,64.42
2018-07-30T07:51:36.069Z,64.29
2018-07-30T07:52:36.053Z,64.48
2018-07-30T07:53:36.112Z,64.87
2018-07-30T07:54:36.111Z,65.82
2018-07-30T07:55:36.142Z,66.47
2018-07-30T07:56:36.174Z,66.56
2018-07-30T07:59:36.259Z,67.41
2018-07-30T08:00:36.290Z,67.12
2018-07-30T08:01:36.321Z,66.66
2018-07-30T08:02:36.351Z,65.3
2018-07-30T08:03:36.382Z,62.24
2018-07-30T08:04:51.075Z,60.21
2018-07-30T08:05:36.443Z,58.58
2018-07-30T08:06:36.473Z,56.19
2018-07-30T08:07:36.505Z,54.87
2018-07-30T08:08:36.540Z,55.32
2018-07-30T08:09:36.651Z,54.11
2018-07-30T08:10:36.608Z,53.65
2018-07-30T08:11:36.633Z,52.72
2018-07-30T08:14:36.731Z,49.48
2018-07-30T08:16:36.799Z,48.44
2018-07-30T08:17:36.833Z,48.25
2018-07-30T08:18:36.865Z,47.78
2018-07-30T08:19:36.901Z,48.17
2018-07-30T08:20:51.596Z,45.53
2018-07-30T08:21:36.707Z,45.85
2018-07-30T08:22:36.999Z,45.46
2018-07-30T08:23:37.038Z,44.69
2018-07-30T08:24:37.069Z,44.2
2018-07-30T08:25:37.104Z,46.44
2018-07-30T08:26:37.140Z,45.9
2018-07-30T08:27:37.173Z,46.03
2018-07-30T08:28:37.208Z,45.34
2018-07-30T08:29:37.250Z,45.61
2018-07-30T08:30:37.285Z,46.1
2018-07-30T08:31:37.315Z,46
2018-07-30T08:32:37.096Z,45.12
2018-07-30T08:33:37.389Z,45.24
2018-07-30T08:34:37.421Z,44.65
2018-07-30T08:35:37.460Z,44.25
2018-07-30T08:36:52.154Z,44.87
2018-07-30T08:37:37.526Z,44.49
2018-07-30T08:38:37.305Z,44.29
2018-07-30T08:39:37.600Z,44
2018-07-30T08:40:37.380Z,44.27
2018-07-30T08:41:37.669Z,44.55
2018-07-30T08:42:37.447Z,44.84
2018-07-30T08:43:37.738Z,44.23
2018-07-30T08:44:37.784Z,44.33
2018-07-30T08:45:37.810Z,44.53
2018-07-30T08:46:37.845Z,44.43
2018-07-30T08:47:37.882Z,45.37
2018-07-30T08:48:37.940Z,45
2018-07-30T08:49:37.953Z,45.02
2018-07-30T08:50:37.995Z,44.33
2018-07-30T08:51:52.689Z,44.53
2018-07-30T08:52:37.802Z,44.55
2018-07-30T08:53:38.096Z,44.35
2018-07-30T08:54:38.136Z,42.97
2018-07-30T08:55:38.171Z,43.27
2018-07-30T08:56:38.205Z,43.17
2018-07-30T08:57:38.238Z,42.16
2018-07-30T08:58:38.273Z,42.79
2018-07-30T08:59:38.309Z,42.18
2018-07-30T09:00:38.090Z,42.79
2018-07-30T09:01:38.387Z,43.27
2018-07-30T09:02:38.416Z,43.56
2018-07-30T09:03:38.451Z,42.58
2018-07-30T09:04:38.484Z,41.51
2018-07-30T09:05:38.519Z,40.94
2018-07-30T09:06:38.557Z,41.53
2018-07-30T09:07:38.594Z,41.81
2018-07-30T09:08:38.652Z,42.08
2018-07-30T09:09:38.666Z,42.3
2018-07-30T09:10:38.701Z,42.1
2018-07-30T09:11:38.737Z,41.61
2018-07-30T09:12:38.963Z,42.2
2018-07-30T09:13:38.804Z,41.41
2018-07-30T09:14:38.843Z,41.24
2018-07-30T09:15:38.877Z,41.41
2018-07-30T09:16:38.907Z,41.24
2018-07-30T09:17:38.947Z,40.86
2018-07-30T09:18:38.979Z,40.48
2018-07-30T09:19:39.024Z,40.69
2018-07-30T09:20:39.057Z,40.58
2018-07-30T09:21:39.085Z,39.99
2018-07-30T09:22:39.120Z,40.29
2018-07-30T09:23:53.819Z,40.76
2018-07-30T09:24:38.933Z,40.17
2018-07-30T09:25:39.228Z,39.99
2018-07-30T09:26:39.052Z,39.7
2018-07-30T09:27:39.300Z,40.29
2018-07-30T09:28:39.331Z,39.89
2018-07-30T09:29:39.366Z,39.79
2018-07-30T09:30:39.404Z,39.97
2018-07-30T09:31:39.442Z,39.48
2018-07-30T09:32:39.597Z,39.32
2018-07-30T09:33:39.506Z,39.79
2018-07-30T09:34:39.542Z,40.01
2018-07-30T09:35:39.585Z,39.79
2018-07-30T09:36:39.612Z,39.91
2018-07-30T09:37:39.650Z,40.31
2018-07-30T09:38:39.733Z,39.62
2018-07-30T09:39:54.380Z,38.73
2018-07-30T09:40:39.750Z,38.47
2018-07-30T09:41:39.786Z,37.48
2018-07-30T09:42:39.819Z,38.47
2018-07-30T09:43:39.859Z,37.77
2018-07-30T09:44:40.125Z,37.94
2018-07-30T09:46:39.960Z,38.57
2018-07-30T09:47:39.994Z,38.67
2018-07-30T09:48:40.032Z,38.65
2018-07-30T09:49:40.067Z,38.73
2018-07-30T09:50:40.274Z,38.43
2018-07-30T09:51:39.878Z,37.74
2018-07-30T09:52:40.168Z,38.04
2018-07-30T09:53:40.203Z,38
2018-07-30T09:54:40.252Z,37.59
2018-07-30T09:55:54.937Z,37.51
2018-07-30T09:56:40.327Z,37.72
2018-07-30T09:57:40.345Z,37.05
2018-07-30T09:58:40.380Z,36.29
2018-07-30T09:59:40.156Z,35.83
2018-07-30T10:00:40.448Z,34.74
2018-07-30T10:01:40.482Z,35.32
2018-07-30T10:02:40.523Z,35.12
2018-07-30T10:03:40.295Z,34.34
2018-07-30T10:05:40.639Z,32.39
2018-07-30T10:07:40.692Z,31.29
2018-07-30T10:08:40.730Z,32.37
2018-07-30T10:09:40.762Z,33.75
2018-07-30T10:10:40.797Z,34.41
2018-07-30T10:11:55.495Z,34.51
2018-07-30T10:12:40.862Z,35.4
2018-07-30T10:13:40.901Z,34.51
2018-07-30T10:14:40.938Z,34.51
2018-07-30T10:15:40.711Z,33.42
2018-07-30T10:17:41.160Z,33.03
2018-07-30T10:18:41.087Z,33.31
2018-07-30T10:19:41.110Z,34.08
2018-07-30T10:20:41.174Z,34.18
2018-07-30T10:23:41.339Z,34.72
2018-07-30T10:24:41.023Z,34.92
2018-07-30T10:25:41.317Z,35.04
2018-07-30T10:26:56.015Z,35.53
2018-07-30T10:27:41.382Z,34.95
2018-07-30T10:28:41.416Z,34.86
2018-07-30T10:29:41.451Z,34.58
2018-07-30T10:30:41.583Z,33.51
2018-07-30T10:31:41.265Z,31.04
2018-07-30T10:32:41.556Z,32.21
2018-07-30T10:33:41.590Z,31.3
2018-07-30T10:35:41.661Z,33.74
2018-07-30T10:37:41.731Z,35.97
2018-07-30T10:38:41.759Z,35.88
2018-07-30T10:40:41.569Z,35.35
2018-07-30T10:41:41.864Z,35.07
2018-07-30T10:42:41.905Z,35.44
2018-07-30T10:43:41.928Z,35.72
2018-07-30T10:44:41.963Z,35.33
2018-07-30T10:45:41.996Z,35.63
2018-07-30T10:46:42.029Z,36.4
2018-07-30T10:47:42.063Z,36.67
2018-07-30T10:48:42.311Z,37.85
2018-07-30T10:49:42.180Z,37.95
2018-07-30T10:50:42.165Z,38.23
2018-07-30T10:52:42.235Z,38.88
2018-07-30T10:54:42.303Z,38.88
2018-07-30T10:55:42.369Z,39.45
2018-07-30T10:56:42.109Z,38.76
2018-07-30T10:57:42.141Z,38.85
2018-07-30T10:58:57.096Z,38.56
2018-07-30T10:59:42.209Z,38.58
2018-07-30T11:00:42.529Z,37.6
2018-07-30T11:01:42.532Z,37.3
2018-07-30T11:02:42.568Z,36.72
2018-07-30T11:03:42.602Z,36.54
2018-07-30T11:04:42.632Z,36.54
2018-07-30T11:05:42.662Z,37.03
2018-07-30T11:06:42.439Z,37.9
2018-07-30T11:08:42.509Z,38.5
2018-07-30T11:09:42.974Z,38.13
2018-07-30T11:10:42.825Z,38.5
2018-07-30T11:11:42.906Z,38.78
2018-07-30T11:12:42.893Z,37.8
2018-07-30T11:13:42.929Z,38.46
2018-07-30T11:14:57.622Z,37.4
2018-07-30T11:15:42.990Z,37.7
2018-07-30T11:16:43.027Z,37.6
2018-07-30T11:17:43.060Z,36.74
2018-07-30T11:18:43.091Z,35.57
2018-07-30T11:19:43.117Z,36.65
2018-07-30T11:20:43.153Z,35.87
2018-07-30T11:21:43.381Z,35.87
2018-07-30T11:22:42.960Z,35.18
2018-07-30T11:23:43.255Z,35.85
2018-07-30T11:25:43.323Z,36.05
2018-07-30T11:26:43.347Z,35.95
2018-07-30T11:27:43.379Z,36.26
2018-07-30T11:28:43.411Z,36.16
2018-07-30T11:29:43.443Z,35.97
2018-07-30T11:30:58.139Z,37.44
2018-07-30T11:31:43.253Z,38.21
2018-07-30T11:32:43.539Z,37.9
2018-07-30T11:33:43.711Z,38.56
2018-07-30T11:34:43.612Z,38.56
2018-07-30T11:35:43.661Z,38.96
2018-07-30T11:36:43.409Z,38.07
2018-07-30T11:37:43.699Z,38.29
2018-07-30T11:39:43.812Z,37.42
2018-07-30T11:40:43.795Z,37.23
2018-07-30T11:41:43.825Z,36.62
2018-07-30T11:42:43.601Z,37.23
2018-07-30T11:43:44.268Z,37.03
2018-07-30T11:44:43.922Z,36.63
2018-07-30T11:45:43.695Z,36.62
2018-07-30T11:46:58.650Z,35.83
2018-07-30T11:47:43.761Z,35.74
2018-07-30T11:48:44.138Z,35.55
2018-07-30T11:49:44.125Z,35.95
2018-07-30T11:50:43.857Z,36.34
2018-07-30T11:51:43.896Z,36.07
2018-07-30T11:52:43.918Z,35.57
2018-07-30T11:53:44.264Z,35.77
2018-07-30T11:54:43.982Z,35.55
2018-07-30T11:55:44.021Z,35.75
2018-07-30T11:56:44.308Z,36.54
2018-07-30T11:57:44.083Z,36.05
2018-07-30T11:58:44.368Z,35.95
2018-07-30T11:59:44.402Z,35.75
2018-07-30T12:00:44.431Z,36.74
2018-07-30T12:01:59.126Z,36.55
2018-07-30T12:02:44.495Z,36.07
2018-07-30T12:03:44.528Z,36.18
2018-07-30T12:04:44.562Z,36.85
2018-07-30T12:05:44.592Z,37.85
2018-07-30T12:07:44.653Z,38.82
2018-07-30T12:08:44.738Z,39.6
2018-07-30T12:09:44.721Z,39.68
2018-07-30T12:10:44.753Z,39.68
2018-07-30T12:11:44.779Z,39.39
2018-07-30T12:12:44.819Z,40.55
2018-07-30T12:13:44.849Z,40.96
2018-07-30T12:14:44.873Z,39.98
2018-07-30T12:15:44.905Z,39.29
2018-07-30T12:16:45.039Z,39.29
2018-07-30T12:17:44.715Z,39.01
2018-07-30T12:18:45.054Z,39.62
2018-07-30T12:19:45.041Z,39.4
2018-07-30T12:20:45.171Z,38.62
2018-07-30T12:21:44.853Z,38.7
2018-07-30T12:22:44.868Z,39.09
2018-07-30T12:23:44.907Z,39.48
2018-07-30T12:24:45.193Z,39
2018-07-30T12:25:44.966Z,39.66
2018-07-30T12:26:45.277Z,39.56
2018-07-30T12:27:45.286Z,39.84
2018-07-30T12:28:45.315Z,40.41
2018-07-30T12:29:45.349Z,39.53
2018-07-30T12:30:45.541Z,39.25
2018-07-30T12:31:45.413Z,39.84
2018-07-30T12:32:45.185Z,39.17
2018-07-30T12:34:00.189Z,39.84
2018-07-30T12:34:45.505Z,39.84
2018-07-30T12:35:45.536Z,40.33
2018-07-30T12:36:45.567Z,39.94
2018-07-30T12:37:45.601Z,40.63
2018-07-30T12:38:45.699Z,40.43
2018-07-30T12:39:45.684Z,40.43
2018-07-30T12:40:45.692Z,40.13
2018-07-30T12:41:45.761Z,39.76
2018-07-30T12:42:45.758Z,38.88
2018-07-30T12:43:45.784Z,39.17
2018-07-30T12:44:45.820Z,39.17
2018-07-30T12:45:45.850Z,38.46
2018-07-30T12:46:45.884Z,39.54
2018-07-30T12:47:45.927Z,39.15
2018-07-30T12:48:45.977Z,39.76
2018-07-30T12:50:00.639Z,38.68
2018-07-30T12:50:46.014Z,38.48
2018-07-30T12:51:46.036Z,38.96
2018-07-30T12:52:46.069Z,39.54
2018-07-30T12:53:45.843Z,38.48
2018-07-30T12:54:46.135Z,38.7
2018-07-30T12:55:46.166Z,38.58
2018-07-30T12:58:46.256Z,38.39
2018-07-30T12:59:46.029Z,38.96
2018-07-30T13:00:46.319Z,38.48
2018-07-30T13:01:46.353Z,38.4
2018-07-30T13:02:46.470Z,38.01
2018-07-30T13:03:46.413Z,37.92
2018-07-30T13:04:46.447Z,37.7
2018-07-30T13:06:01.139Z,37.42
2018-07-30T13:06:46.508Z,37.24
2018-07-30T13:07:46.538Z,37.15
2018-07-30T13:08:46.570Z,37.62
2018-07-30T13:09:46.634Z,37.52
2018-07-30T13:10:46.632Z,37.42
2018-07-30T13:11:46.669Z,36.74
2018-07-30T13:12:46.700Z,37.44
2018-07-30T13:13:46.849Z,37.74
2018-07-30T13:14:46.808Z,37.93
2018-07-30T13:15:46.800Z,37.44
2018-07-30T13:16:46.824Z,37.13
2018-07-30T13:18:46.885Z,38.78
2018-07-30T13:19:47.014Z,38.58
2018-07-30T13:20:46.944Z,38.98
2018-07-30T13:22:01.641Z,38.78
2018-07-30T13:22:47.007Z,38.39
2018-07-30T13:23:47.041Z,38.85
2018-07-30T13:24:47.072Z,38.56
2018-07-30T13:25:47.106Z,38.46
2018-07-30T13:26:46.973Z,38.15
2018-07-30T13:27:47.163Z,38.72
2018-07-30T13:28:46.939Z,38.82
2018-07-30T13:29:46.970Z,38.43
2018-07-30T13:30:47.258Z,39.51
2018-07-30T13:32:47.073Z,38.46
2018-07-30T13:33:47.411Z,38.07
2018-07-30T13:34:47.384Z,37.5
2018-07-30T13:35:47.418Z,36.52
2018-07-30T13:37:02.110Z,35.64
2018-07-30T13:37:47.478Z,36.63
2018-07-30T13:38:47.512Z,36.65
2018-07-30T13:39:47.540Z,36.54
2018-07-30T13:40:47.574Z,36.63
2018-07-30T13:41:47.602Z,37.21
2018-07-30T13:42:47.378Z,37.11
2018-07-30T13:43:47.409Z,36.82
2018-07-30T13:44:47.701Z,37.3
2018-07-30T13:45:47.729Z,36.42